Time;durP1;ratioP1;P1;durP2;ratioP2;P2;SDS_P1;SDS_P2;PMS_P1;PMS_P2;Temp;Humidity;BMP_temperature;BMP_pressure;BME280_temperature;BME280_humidity;BME280_pressure;Samples;Min_cycle;Max_cycle;Signal;HPM_P1;HPM_P2
2022/07/08 00:01:28;;;;;;;7.13;2.10;;;;;;;17.62;79.91;101403.47;5009528;28;20233;-76
2022/07/08 00:03:53;;;;;;;4.57;2.20;;;;;;;17.56;80.19;101395.75;5012860;28;20274;-77
2022/07/08 00:06:19;;;;;;;5.87;2.00;;;;;;;17.51;80.51;101395.84;5026116;28;20612;-77
2022/07/08 00:08:45;;;;;;;6.00;2.30;;;;;;;17.50;80.42;101404.59;5024895;28;20184;-76
2022/07/08 00:11:11;;;;;;;6.53;2.23;;;;;;;17.49;80.47;101407.22;5032189;28;20573;-75
2022/07/08 00:13:37;;;;;;;5.13;2.30;;;;;;;17.43;80.44;101405.59;5029259;28;20728;-76
2022/07/08 00:16:02;;;;;;;6.97;2.63;;;;;;;17.35;80.58;101405.75;5026849;28;20231;-76
2022/07/08 00:18:28;;;;;;;5.90;2.50;;;;;;;17.36;80.96;101417.94;5027415;28;20245;-77
2022/07/08 00:20:53;;;;;;;6.80;2.50;;;;;;;17.32;80.76;101420.66;5009211;28;20187;-76
2022/07/08 00:23:19;;;;;;;5.63;2.30;;;;;;;17.26;80.28;101431.22;5023695;28;20192;-75
2022/07/08 00:25:44;;;;;;;4.73;2.47;;;;;;;17.22;80.35;101435.66;5026168;28;20532;-77
2022/07/08 00:28:10;;;;;;;3.77;2.63;;;;;;;17.20;80.53;101429.59;5024630;28;20190;-76
2022/07/08 00:30:35;;;;;;;6.03;2.63;;;;;;;17.14;80.79;101438.41;5007135;28;20187;-76
2022/07/08 00:33:00;;;;;;;7.57;2.93;;;;;;;17.13;80.74;101447.13;5008445;28;20180;-76
2022/07/08 00:35:26;;;;;;;6.17;2.40;;;;;;;17.06;80.91;101435.94;5021356;28;20312;-76
2022/07/08 00:37:53;;;;;;;6.17;3.50;;;;;;;17.04;80.58;101436.84;5020874;28;20244;-76
2022/07/08 00:40:19;;;;;;;5.73;2.67;;;;;;;17.05;81.01;101443.81;5024075;28;20195;-76
2022/07/08 00:42:48;;;;;;;3.27;2.67;;;;;;;17.02;81.28;101459.56;5026753;28;20182;-77
2022/07/08 00:45:13;;;;;;;5.50;3.07;;;;;;;17.04;80.71;101455.16;5009269;28;20196;-75
2022/07/08 00:47:38;;;;;;;7.00;2.93;;;;;;;17.01;80.75;101445.63;5023106;28;20182;-76
2022/07/08 00:50:05;;;;;;;6.73;3.10;;;;;;;16.98;80.67;101452.63;5006780;28;20205;-76
2022/07/08 00:52:31;;;;;;;5.87;3.20;;;;;;;16.93;81.35;101447.47;5007132;28;20713;-76
2022/07/08 00:54:57;;;;;;;7.33;3.07;;;;;;;16.95;81.08;101448.34;5021986;28;20203;-76
2022/07/08 00:57:22;;;;;;;6.63;3.30;;;;;;;16.92;80.98;101443.13;5005998;28;20203;-76
2022/07/08 00:59:48;;;;;;;5.50;3.33;;;;;;;16.85;81.42;101447.59;5023807;28;20226;-77
2022/07/08 01:02:14;;;;;;;5.30;3.30;;;;;;;16.85;81.38;101454.59;5025407;28;20257;-75
2022/07/08 01:04:39;;;;;;;4.93;2.70;;;;;;;16.80;81.62;101453.78;5007336;28;20961;-76
2022/07/08 01:07:06;;;;;;;6.00;3.27;;;;;;;16.74;82.02;101450.38;5026924;28;20573;-76
2022/07/08 01:09:31;;;;;;;6.13;3.13;;;;;;;16.68;81.96;101453.09;5029473;28;20190;-76
2022/07/08 01:11:57;;;;;;;5.83;3.10;;;;;;;16.62;82.24;101461.03;5024392;28;20617;-77
2022/07/08 01:14:23;;;;;;;6.27;3.13;;;;;;;16.53;82.81;101451.56;5008195;28;20212;-76
2022/07/08 01:16:48;;;;;;;6.80;3.40;;;;;;;16.45;83.19;101445.63;5009042;28;20242;-76
2022/07/08 01:19:14;;;;;;;5.63;3.47;;;;;;;16.36;83.73;101456.19;5009691;28;20183;-77
2022/07/08 01:21:39;;;;;;;4.63;3.10;;;;;;;16.30;83.71;101455.41;5008979;28;20184;-76
2022/07/08 01:24:05;;;;;;;4.37;2.90;;;;;;;16.26;84.11;101460.69;5004272;28;20216;-76
2022/07/08 01:26:30;;;;;;;4.03;3.07;;;;;;;16.24;83.98;101457.25;5007560;28;20954;-76
2022/07/08 01:28:56;;;;;;;4.13;2.63;;;;;;;16.19;84.68;101457.28;5009006;28;20183;-76
2022/07/08 01:31:22;;;;;;;4.03;2.60;;;;;;;16.15;84.58;101459.06;5007403;28;20236;-77
2022/07/08 01:33:47;;;;;;;4.93;2.90;;;;;;;16.13;84.73;101465.22;5010092;28;20186;-76
2022/07/08 01:36:13;;;;;;;3.50;2.63;;;;;;;16.08;84.95;101472.22;5024609;28;20293;-76
2022/07/08 01:38:38;;;;;;;4.37;3.10;;;;;;;16.01;85.10;101468.84;5026561;28;20565;-76
2022/07/08 01:41:03;;;;;;;5.23;2.90;;;;;;;15.95;84.75;101467.16;5023591;28;21133;-76
2022/07/08 01:43:29;;;;;;;4.93;3.17;;;;;;;15.87;85.08;101470.75;5005781;28;20184;-76
2022/07/08 01:45:55;;;;;;;5.57;2.90;;;;;;;15.79;85.61;101476.91;5004355;28;20207;-77
2022/07/08 01:48:20;;;;;;;5.50;3.10;;;;;;;15.72;85.76;101475.25;5023808;28;20215;-76
2022/07/08 01:50:47;;;;;;;4.03;2.93;;;;;;;15.66;86.51;101476.19;5023305;28;20183;-76
2022/07/08 01:53:13;;;;;;;4.87;2.90;;;;;;;15.58;86.60;101482.34;5009691;28;20200;-76
2022/07/08 01:55:39;;;;;;;3.33;3.00;;;;;;;15.48;86.96;101487.69;5009286;28;20210;-76
2022/07/08 01:58:04;;;;;;;2.97;2.57;;;;;;;15.41;87.33;101479.94;5023106;28;20191;-76
2022/07/08 02:00:29;;;;;;;3.07;2.77;;;;;;;15.36;88.01;101483.44;5026230;28;21083;-76
2022/07/08 02:02:55;;;;;;;4.53;2.67;;;;;;;15.29;87.89;101488.72;5027337;28;20201;-76
2022/07/08 02:05:21;;;;;;;3.60;2.57;;;;;;;15.22;87.52;101480.94;5011265;28;20195;-75
2022/07/08 02:07:47;;;;;;;4.07;2.63;;;;;;;15.16;87.44;101485.38;5011206;28;20194;-76
2022/07/08 02:10:12;;;;;;;3.13;2.63;;;;;;;15.10;87.44;101486.28;5009490;28;20282;-76
2022/07/08 02:12:38;;;;;;;5.43;3.07;;;;;;;15.01;87.78;101482.00;5013325;28;20707;-76
2022/07/08 02:15:06;;;;;;;4.57;3.07;;;;;;;14.94;87.90;101481.19;5031649;28;20192;-76
2022/07/08 02:17:34;;;;;;;4.43;3.00;;;;;;;14.89;88.10;101482.13;5027823;28;20208;-76
2022/07/08 02:20:00;;;;;;;3.07;2.53;;;;;;;14.84;88.48;101483.88;5030044;28;20675;-76
2022/07/08 02:22:26;;;;;;;4.10;2.90;;;;;;;14.77;88.31;101477.84;5011549;28;20282;-77
2022/07/08 02:24:52;;;;;;;4.87;2.73;;;;;;;14.73;88.67;101494.41;5030980;28;20199;-76
2022/07/08 02:27:19;;;;;;;4.30;2.53;;;;;;;14.70;88.90;101495.28;5011759;28;20215;-76
2022/07/08 02:29:45;;;;;;;4.20;3.00;;;;;;;14.67;89.12;101500.47;5025792;28;20182;-75
2022/07/08 02:32:10;;;;;;;3.80;2.80;;;;;;;14.63;89.92;101497.03;5010099;28;20211;-76
2022/07/08 02:34:36;;;;;;;5.07;2.93;;;;;;;14.60;90.34;101497.03;5027137;28;20271;-76
2022/07/08 02:37:02;;;;;;;3.07;2.73;;;;;;;14.56;91.27;101492.75;5008094;28;20772;-76
2022/07/08 02:39:30;;;;;;;3.40;3.10;;;;;;;14.52;92.01;101498.84;5011081;28;20304;-77
2022/07/08 02:41:56;;;;;;;3.23;2.70;;;;;;;14.48;91.91;101500.59;5026923;28;20879;-76
2022/07/08 02:44:21;;;;;;;3.57;2.57;;;;;;;14.41;92.01;101511.91;5030199;28;20192;-76
2022/07/08 02:46:47;;;;;;;5.73;3.20;;;;;;;14.38;92.47;101505.88;5029778;28;20199;-77
2022/07/08 02:49:12;;;;;;;5.53;3.13;;;;;;;14.35;92.56;101506.75;5013693;28;20198;-77
2022/07/08 02:51:39;;;;;;;4.67;3.33;;;;;;;14.32;92.88;101515.44;5028095;28;20203;-77
2022/07/08 02:54:05;;;;;;;4.27;2.73;;;;;;;14.31;93.58;101510.25;5026338;28;20650;-76
2022/07/08 02:56:31;;;;;;;3.60;2.80;;;;;;;14.26;94.17;101517.19;5027208;28;20220;-77
2022/07/08 02:58:57;;;;;;;4.67;3.03;;;;;;;14.21;94.39;101513.75;5009719;28;20217;-77
2022/07/08 03:01:22;;;;;;;4.10;3.07;;;;;;;14.14;95.10;101519.00;5008343;28;20693;-76
2022/07/08 03:03:48;;;;;;;3.90;3.17;;;;;;;14.08;95.76;101515.53;5025519;28;20201;-76
2022/07/08 03:06:14;;;;;;;3.50;3.17;;;;;;;14.03;96.26;101521.63;5010209;28;20687;-76
2022/07/08 03:08:40;;;;;;;4.00;3.10;;;;;;;14.00;96.71;101518.16;5026765;28;20195;-76
2022/07/08 03:11:06;;;;;;;3.53;3.23;;;;;;;13.96;97.17;101526.84;5007272;28;20210;-77
2022/07/08 03:13:32;;;;;;;4.53;3.30;;;;;;;13.91;97.53;101526.03;5026136;28;20529;-75
2022/07/08 03:15:57;;;;;;;3.97;3.03;;;;;;;13.89;97.89;101526.00;5026077;28;20286;-76
2022/07/08 03:18:23;;;;;;;3.80;3.30;;;;;;;13.86;98.44;101532.09;5002081;28;20192;-75
2022/07/08 03:20:49;;;;;;;3.93;2.97;;;;;;;13.81;98.61;101535.59;5023945;28;20184;-76
2022/07/08 03:23:14;;;;;;;4.60;3.13;;;;;;;13.77;98.82;101529.50;5009603;28;20191;-76
2022/07/08 03:25:40;;;;;;;4.20;3.43;;;;;;;13.73;98.98;101533.00;5007064;28;21044;-77
2022/07/08 03:28:05;;;;;;;3.67;3.07;;;;;;;13.71;98.47;101540.78;5008082;28;20192;-76
2022/07/08 03:30:30;;;;;;;5.33;3.23;;;;;;;13.70;97.94;101540.81;5025891;28;20237;-76
2022/07/08 03:32:56;;;;;;;4.30;2.90;;;;;;;13.70;97.54;101541.66;5027072;28;20210;-76
2022/07/08 03:35:21;;;;;;;4.13;2.97;;;;;;;13.70;97.55;101540.81;5026427;28;20208;-76
2022/07/08 03:37:50;;;;;;;5.77;3.50;;;;;;;13.71;97.20;101537.34;5002828;28;20191;-76
2022/07/08 03:43:00;;;;;;;4.07;3.10;;;;;;;13.75;97.13;101546.00;5025759;28;20372;-76
2022/07/08 03:45:26;;;;;;;4.90;3.83;;;;;;;13.74;97.21;101541.66;5008696;28;20528;-76
2022/07/08 03:47:51;;;;;;;3.53;3.23;;;;;;;13.76;97.49;101542.53;5025078;28;20197;-76
2022/07/08 03:50:18;;;;;;;4.40;3.20;;;;;;;13.77;97.84;101539.91;5027802;28;20190;-77
2022/07/08 03:52:45;;;;;;;4.23;3.13;;;;;;;13.78;97.51;101552.06;5026509;28;20238;-76
2022/07/08 03:55:10;;;;;;;3.83;3.40;;;;;;;13.80;97.66;101552.06;5008400;28;20194;-75
2022/07/08 03:57:36;;;;;;;5.67;3.50;;;;;;;13.84;97.59;101556.41;5020877;28;20193;-76
2022/07/08 04:00:02;;;;;;;4.93;3.83;;;;;;;13.91;97.37;101552.03;5022656;28;20208;-77
2022/07/08 04:02:27;;;;;;;3.53;3.27;;;;;;;14.04;96.97;101556.34;5004996;28;20191;-76
2022/07/08 04:04:52;;;;;;;5.10;3.83;;;;;;;14.19;96.48;101552.81;5023639;28;20272;-76
2022/07/08 04:07:18;;;;;;;6.80;3.23;;;;;;;14.31;96.14;101552.75;5009647;28;20714;-76
2022/07/08 04:09:43;;;;;;;4.90;3.80;;;;;;;14.40;95.41;101564.03;5029039;28;20228;-76
2022/07/08 04:12:09;;;;;;;4.17;3.40;;;;;;;14.47;95.08;101569.19;5030998;28;20292;-75
2022/07/08 04:14:35;;;;;;;5.87;3.13;;;;;;;14.51;94.27;101574.41;5011551;28;20622;-76
2022/07/08 04:17:02;;;;;;;4.30;3.10;;;;;;;14.56;94.34;101568.28;5035579;28;20205;-77
2022/07/08 04:19:27;;;;;;;5.70;3.10;;;;;;;14.60;93.83;101566.53;5032367;28;20183;-76
2022/07/08 04:21:53;;;;;;;4.47;3.30;;;;;;;14.67;93.75;101568.19;5024551;28;20218;-76
2022/07/08 04:24:18;;;;;;;7.23;3.47;;;;;;;14.74;93.58;101572.56;5013053;28;20196;-75
2022/07/08 04:26:46;;;;;;;6.27;3.40;;;;;;;15.01;92.73;101570.66;5032918;28;20295;-75
2022/07/08 04:29:11;;;;;;;7.30;3.40;;;;;;;15.35;91.39;101574.75;5021066;28;20205;-75
2022/07/08 04:31:37;;;;;;;8.00;2.80;;;;;;;15.54;90.61;101575.47;5035622;28;20182;-75
2022/07/08 04:34:03;;;;;;;3.13;2.80;;;;;;;15.62;90.05;101570.19;5009159;28;21228;-76
2022/07/08 04:36:28;;;;;;;4.73;3.30;;;;;;;15.66;90.41;101577.94;5006426;28;20202;-76
2022/07/08 04:38:54;;;;;;;4.33;3.20;;;;;;;15.83;90.42;101575.16;5003513;28;20180;-75
2022/07/08 04:41:19;;;;;;;4.13;2.97;;;;;;;16.12;89.67;101575.78;5015525;28;20638;-76
2022/07/08 04:43:44;;;;;;;3.27;2.90;;;;;;;16.70;87.91;101578.53;5031926;28;20602;-75
2022/07/08 04:46:11;;;;;;;5.03;3.07;;;;;;;17.91;84.71;101584.44;5028637;28;20205;-76
2022/07/08 04:48:36;;;;;;;3.53;2.70;;;;;;;19.24;81.04;101580.78;5028167;28;20910;-76
2022/07/08 04:51:02;;;;;;;5.77;2.77;;;;;;;20.45;78.01;101582.84;5030141;28;20204;-75
2022/07/08 04:53:28;;;;;;;5.00;2.70;;;;;;;21.46;75.74;101584.03;5030186;28;20184;-75
2022/07/08 04:55:53;;;;;;;4.63;2.40;;;;;;;22.40;73.54;101592.16;5041873;28;20220;-76
2022/07/08 04:58:18;;;;;;;5.30;2.70;;;;;;;23.20;71.83;101589.94;5027328;28;20198;-75
2022/07/08 05:00:44;;;;;;;5.47;2.60;;;;;;;23.84;70.14;101585.47;5027935;28;20262;-75
2022/07/08 05:03:09;;;;;;;7.27;2.60;;;;;;;24.09;67.79;101576.50;5010755;28;20237;-75
2022/07/08 05:05:35;;;;;;;5.20;2.30;;;;;;;23.84;67.58;101573.13;5011121;28;20218;-76
2022/07/08 05:08:01;;;;;;;4.47;2.27;;;;;;;24.13;66.03;101575.41;5012833;28;20198;-76
2022/07/08 05:10:27;;;;;;;8.40;2.50;;;;;;;24.57;63.44;101584.84;5028763;28;20187;-76
2022/07/08 05:12:54;;;;;;;5.70;2.57;;;;;;;25.05;62.74;101579.94;5029637;28;20246;-76
2022/07/08 05:15:21;;;;;;;4.87;2.40;;;;;;;25.50;61.84;101561.81;5026026;28;20627;-76
2022/07/08 05:17:51;;;;;;;5.67;2.40;;;;;;;25.96;60.93;101570.00;5029515;28;20551;-76
2022/07/08 05:20:16;;;;;;;4.50;1.90;;;;;;;26.53;60.34;101573.16;5041863;28;20239;-77
2022/07/08 05:22:42;;;;;;;5.13;2.33;;;;;;;26.76;59.07;101569.22;5044871;28;20183;-77
2022/07/08 05:25:15;;;;;;;6.00;2.43;;;;;;;27.03;58.57;101571.25;5046592;28;20204;-76
2022/07/08 05:27:41;;;;;;;4.60;2.13;;;;;;;27.29;58.34;101572.38;5026277;28;20198;-77
2022/07/08 05:30:09;;;;;;;5.80;2.70;;;;;;;27.53;57.05;101570.03;5020811;28;20190;-76
2022/07/08 05:32:34;;;;;;;5.27;2.10;;;;;;;27.73;56.93;101573.31;5015510;28;20234;-77
2022/07/08 05:35:01;;;;;;;3.57;1.90;;;;;;;27.84;56.41;101575.31;5021903;28;20320;-76
2022/07/08 05:37:29;;;;;;;7.37;2.20;;;;;;;27.99;56.10;101566.38;5023691;28;20182;-77
2022/07/08 05:39:55;;;;;;;7.43;2.33;;;;;;;28.01;55.51;101568.91;5019233;28;20206;-76
2022/07/08 05:42:20;;;;;;;6.23;2.60;;;;;;;27.88;55.29;101574.16;5033343;28;20187;-77
2022/07/08 05:44:45;;;;;;;4.97;2.27;;;;;;;28.07;55.29;101573.88;5014389;28;20523;-76
2022/07/08 05:47:11;;;;;;;3.93;2.20;;;;;;;28.12;54.76;101570.94;5019348;28;20705;-76
2022/07/08 05:49:37;;;;;;;5.40;2.60;;;;;;;28.20;54.53;101573.13;5006281;28;20191;-74
2022/07/08 05:52:04;;;;;;;3.63;1.93;;;;;;;28.51;54.70;101573.81;5009966;28;20851;-76
2022/07/08 05:54:30;;;;;;;4.00;2.10;;;;;;;28.80;54.59;101571.97;5023308;28;20278;-76
2022/07/08 05:56:58;;;;;;;4.80;2.20;;;;;;;29.02;54.01;101573.16;5009885;28;20211;-76
2022/07/08 05:59:23;;;;;;;5.03;2.07;;;;;;;29.10;53.66;101573.53;5009684;28;20187;-75
2022/07/08 06:01:49;;;;;;;4.73;2.40;;;;;;;29.02;53.78;101574.03;5010755;28;20180;-75
2022/07/08 06:04:14;;;;;;;4.23;1.97;;;;;;;29.27;53.21;101576.88;5027808;28;20902;-75
2022/07/08 06:06:39;;;;;;;7.67;2.20;;;;;;;29.53;53.34;101582.25;5004602;28;20210;-76
2022/07/08 06:09:05;;;;;;;5.17;2.10;;;;;;;29.69;53.03;101584.69;5004362;28;20327;-76
2022/07/08 06:11:30;;;;;;;7.23;2.53;;;;;;;29.60;52.91;101581.72;5010710;28;20286;-77
2022/07/08 06:13:55;;;;;;;6.37;2.37;;;;;;;29.25;52.19;101586.78;5027038;28;20183;-77
2022/07/08 06:16:21;;;;;;;7.27;2.50;;;;;;;29.27;52.92;101591.03;5011391;28;20375;-76
2022/07/08 06:18:47;;;;;;;4.23;2.33;;;;;;;29.32;52.59;101582.72;5032939;28;20191;-74
2022/07/08 06:21:12;;;;;;;5.40;2.13;;;;;;;29.63;52.67;101594.84;5010699;28;20719;-78
2022/07/08 06:23:38;;;;;;;5.40;1.83;;;;;;;29.41;52.48;101595.47;5008756;28;20187;-76
2022/07/08 06:26:03;;;;;;;4.10;2.00;;;;;;;29.59;53.18;101597.81;5026383;28;20196;-75
2022/07/08 06:28:29;;;;;;;4.97;1.90;;;;;;;29.41;52.03;101598.13;5026017;28;20180;-76
2022/07/08 06:30:55;;;;;;;5.93;2.30;;;;;;;28.83;52.48;101597.53;5030795;28;20557;-76
2022/07/08 06:33:20;;;;;;;4.23;2.07;;;;;;;29.16;52.93;101588.25;5026660;28;20187;-76
2022/07/08 06:35:46;;;;;;;6.13;2.37;;;;;;;28.76;53.21;101605.06;5025523;28;20212;-75
2022/07/08 06:38:11;;;;;;;5.43;2.40;;;;;;;28.82;53.15;101601.97;5026970;28;20187;-76
2022/07/08 06:40:37;;;;;;;4.87;2.07;;;;;;;29.23;52.96;101600.19;5025723;28;20674;-77
2022/07/08 06:43:02;;;;;;;6.77;2.13;;;;;;;28.62;52.60;101605.91;5027051;28;20183;-75
2022/07/08 06:45:31;;;;;;;5.60;2.40;;;;;;;27.45;53.71;101609.53;5025368;28;20202;-76
2022/07/08 06:47:57;;;;;;;4.83;1.80;;;;;;;26.13;56.04;101613.38;5028486;28;20180;-76
2022/07/08 06:50:23;;;;;;;5.00;1.93;;;;;;;27.06;54.94;101613.56;5038853;28;20308;-76
2022/07/08 06:52:48;;;;;;;3.37;1.73;;;;;;;27.50;54.41;101609.25;5026654;28;20583;-74
2022/07/08 06:55:13;;;;;;;4.73;1.90;;;;;;;27.76;53.77;101609.47;5031233;28;20183;-75
2022/07/08 06:57:39;;;;;;;4.40;1.90;;;;;;;28.13;52.97;101610.75;5028671;28;20173;-76
2022/07/08 07:00:05;;;;;;;2.60;1.33;;;;;;;28.48;52.56;101603.28;5028209;28;20198;-76
2022/07/08 07:02:31;;;;;;;2.87;1.63;;;;;;;28.96;52.41;101610.91;5029819;28;20270;-76
2022/07/08 07:04:56;;;;;;;4.07;1.77;;;;;;;28.93;51.99;101613.75;5031115;28;20229;-76
2022/07/08 07:07:22;;;;;;;3.90;1.53;;;;;;;29.20;51.93;101611.91;5026082;28;20226;-75
2022/07/08 07:09:48;;;;;;;6.63;1.90;;;;;;;28.29;51.94;101618.66;5026839;28;20192;-75
2022/07/08 07:12:14;;;;;;;5.57;1.70;;;;;;;28.75;52.06;101616.69;5012135;28;20691;-75
2022/07/08 07:14:40;;;;;;;4.53;1.90;;;;;;;28.87;51.40;101634.53;5029469;28;20611;-77
2022/07/08 07:17:05;;;;;;;7.00;2.00;;;;;;;27.89;52.24;101620.22;5029488;28;20667;-76
2022/07/08 07:19:31;;;;;;;3.23;1.63;;;;;;;27.82;52.52;101627.75;5030279;28;20171;-76
2022/07/08 07:21:56;;;;;;;3.80;1.70;;;;;;;26.36;54.20;101636.00;5028713;28;20186;-75
2022/07/08 07:24:21;;;;;;;5.57;2.03;;;;;;;25.22;55.99;101630.28;5011883;28;20222;-76
2022/07/08 07:26:47;;;;;;;2.10;1.27;;;;;;;24.32;57.35;101633.63;5010600;28;20334;-76
2022/07/08 07:29:12;;;;;;;4.07;2.00;;;;;;;23.51;59.05;101645.00;5018942;28;20698;-75
2022/07/08 07:31:38;;;;;;;5.23;2.20;;;;;;;22.55;61.29;101634.72;5008827;28;20244;-76
2022/07/08 07:34:03;;;;;;;3.97;1.77;;;;;;;22.24;61.16;101639.31;5027728;28;20187;-76
2022/07/08 07:36:29;;;;;;;3.93;1.47;;;;;;;22.09;61.27;101638.09;5029373;28;20207;-75
2022/07/08 07:38:55;;;;;;;3.13;1.47;;;;;;;23.53;59.76;101637.00;5027397;28;20187;-75
2022/07/08 07:41:20;;;;;;;4.57;1.87;;;;;;;24.93;57.46;101626.44;5011668;28;20210;-75
2022/07/08 07:43:45;;;;;;;3.10;1.67;;;;;;;26.12;55.42;101627.56;5011256;28;20206;-77
2022/07/08 07:46:11;;;;;;;4.97;1.63;;;;;;;26.89;54.58;101627.81;5026125;28;20246;-76
2022/07/08 07:48:36;;;;;;;2.47;1.67;;;;;;;26.71;53.81;101630.53;5027719;28;20640;-75
2022/07/08 07:51:02;;;;;;;3.47;1.57;;;;;;;25.48;55.64;101632.59;5026454;28;20198;-74
2022/07/08 07:53:27;;;;;;;4.40;1.80;;;;;;;24.55;58.04;101634.34;5012230;28;20230;-76
2022/07/08 07:55:53;;;;;;;5.67;2.10;;;;;;;23.88;59.37;101626.72;5023297;28;20211;-75
2022/07/08 07:58:19;;;;;;;3.00;1.80;;;;;;;24.06;59.38;101627.72;5030076;28;20187;-76
2022/07/08 08:00:45;;;;;;;3.97;2.00;;;;;;;24.54;58.86;101627.34;5027361;28;21037;-76
2022/07/08 08:03:11;;;;;;;4.13;1.93;;;;;;;24.56;58.56;101630.78;5030414;28;20826;-75
2022/07/08 08:05:36;;;;;;;5.93;2.00;;;;;;;24.59;58.84;101622.69;5012143;28;20737;-75
2022/07/08 08:08:01;;;;;;;4.40;1.80;;;;;;;24.62;58.38;101628.69;5030032;28;20191;-76
2022/07/08 08:10:27;;;;;;;3.37;1.80;;;;;;;24.63;59.12;101629.56;5027598;28;20196;-76
2022/07/08 08:12:52;;;;;;;3.43;1.80;;;;;;;24.25;59.23;101629.53;5027833;28;20210;-76
2022/07/08 08:15:18;;;;;;;6.13;2.17;;;;;;;23.87;60.00;101636.44;5007301;28;20190;-75
2022/07/08 08:17:43;;;;;;;5.40;2.03;;;;;;;23.42;60.87;101642.78;5029953;28;20632;-76
2022/07/08 08:20:11;;;;;;;5.27;2.00;;;;;;;23.30;61.46;101644.13;5040593;28;20239;-76
2022/07/08 08:22:36;;;;;;;6.77;2.03;;;;;;;23.56;60.88;101628.97;5027003;28;20206;-76
2022/07/08 08:25:02;;;;;;;7.70;2.20;;;;;;;23.75;60.15;101634.31;5028177;28;20650;-76
2022/07/08 08:27:28;;;;;;;4.50;1.77;;;;;;;23.65;60.40;101627.72;5029155;28;20191;-75
2022/07/08 08:29:53;;;;;;;2.03;1.43;;;;;;;23.49;60.75;101625.72;5028283;28;20179;-76
2022/07/08 08:32:18;;;;;;;5.07;1.83;;;;;;;23.16;60.38;101628.81;5029057;28;20222;-75
2022/07/08 08:34:44;;;;;;;5.67;1.67;;;;;;;22.92;61.23;101625.38;5026373;28;20701;-75
2022/07/08 08:37:09;;;;;;;3.67;1.93;;;;;;;22.81;60.97;101626.66;5029758;28;20577;-75
2022/07/08 08:39:34;;;;;;;4.43;1.70;;;;;;;22.88;60.84;101624.63;5011793;28;20199;-77
2022/07/08 08:42:00;;;;;;;5.80;1.33;;;;;;;23.03;60.59;101623.19;5009426;28;20291;-74
2022/07/08 08:44:26;;;;;;;3.40;1.80;;;;;;;23.13;60.41;101629.78;5026312;28;20195;-76
2022/07/08 08:46:53;;;;;;;3.73;1.60;;;;;;;23.29;60.18;101622.13;5005390;28;20200;-75
2022/07/08 08:49:20;;;;;;;3.97;1.53;;;;;;;23.36;59.87;101620.13;5024154;28;20187;-77
2022/07/08 08:51:49;;;;;;;2.20;1.40;;;;;;;23.29;60.09;101631.84;5011537;28;20211;-76
2022/07/08 08:54:16;;;;;;;1.87;1.33;;;;;;;23.19;60.14;101617.28;5033432;28;20290;-76
2022/07/08 08:56:43;;;;;;;3.43;1.43;;;;;;;23.18;59.90;101621.69;5027293;28;20207;-76
2022/07/08 08:59:09;;;;;;;3.50;1.63;;;;;;;23.09;59.62;101620.28;5027239;28;20211;-76
2022/07/08 09:01:35;;;;;;;3.10;1.87;;;;;;;23.08;59.55;101615.06;5010962;28;20237;-77
2022/07/08 09:04:02;;;;;;;5.27;1.90;;;;;;;22.62;59.86;101613.31;5004049;28;20188;-76
2022/07/08 09:06:27;;;;;;;3.67;1.43;;;;;;;22.08;60.50;101618.78;5010395;28;20230;-76
2022/07/08 09:08:53;;;;;;;4.13;1.70;;;;;;;21.99;61.26;101619.13;5027931;28;20659;-76
2022/07/08 09:11:19;;;;;;;3.50;1.50;;;;;;;22.03;61.91;101612.84;5028978;28;20341;-76
2022/07/08 09:14:18;;;;;;;3.77;1.83;;;;;;;21.96;62.31;101608.69;5034941;28;20304;-76
2022/07/08 09:17:06;;;;;;;4.33;1.80;;;;;;;21.62;61.58;101610.75;5022815;28;20982;-76
2022/07/08 09:19:32;;;;;;;2.63;1.40;;;;;;;21.66;61.63;101610.63;5009324;28;20219;-76
2022/07/08 09:21:57;;;;;;;4.07;1.83;;;;;;;21.71;61.82;101606.94;5016212;28;20183;-75
2022/07/08 09:24:22;;;;;;;3.43;1.30;;;;;;;21.82;61.92;101610.94;5010230;28;20187;-76
2022/07/08 09:26:48;;;;;;;2.53;1.40;;;;;;;21.92;61.25;101607.09;5027217;28;20207;-76
2022/07/08 09:29:13;;;;;;;2.47;1.50;;;;;;;21.94;61.63;101605.25;5038412;28;20233;-75
2022/07/08 09:31:39;;;;;;;4.87;1.70;;;;;;;21.97;61.59;101602.50;5022399;28;20325;-75
2022/07/08 09:34:10;;;;;;;3.37;1.60;;;;;;;21.84;62.04;101610.00;5027757;28;20227;-75
2022/07/08 09:36:45;;;;;;;6.30;1.80;;;;;;;21.78;61.69;101615.47;5026222;28;20214;-76
2022/07/08 09:39:27;;;;;;;4.40;1.50;;;;;;;21.73;61.46;101610.38;5026587;28;20199;-76
2022/07/08 09:41:53;;;;;;;3.97;1.67;;;;;;;21.80;61.80;101611.03;5002805;28;20222;-77
2022/07/08 09:44:20;;;;;;;3.77;1.50;;;;;;;21.89;62.41;101602.78;5021333;28;20227;-75
2022/07/08 09:46:47;;;;;;;5.43;1.70;;;;;;;21.94;61.97;101607.88;5031835;28;20245;-76
2022/07/08 09:49:34;;;;;;;5.17;1.53;;;;;;;21.85;62.48;101603.81;5007475;28;20205;-76
2022/07/08 09:52:00;;;;;;;2.57;1.70;;;;;;;21.82;62.67;101614.47;5023555;28;20214;-76
2022/07/08 09:54:27;;;;;;;2.93;1.33;;;;;;;21.83;62.32;101613.56;5028336;28;20207;-77
2022/07/08 09:57:08;;;;;;;4.73;1.90;;;;;;;21.70;62.35;101617.53;5024520;28;20291;-75
2022/07/08 09:59:35;;;;;;;2.87;1.43;;;;;;;21.61;62.29;101619.56;5026650;28;20187;-77
2022/07/08 10:02:03;;;;;;;2.77;1.40;;;;;;;21.73;62.31;101615.63;5023791;28;20575;-76
2022/07/08 10:04:28;;;;;;;3.17;1.40;;;;;;;22.07;62.08;101611.81;5009884;28;20589;-76
2022/07/08 10:06:56;;;;;;;4.20;2.00;;;;;;;22.21;61.97;101624.47;5008451;28;20203;-77
2022/07/08 10:09:23;;;;;;;2.83;1.50;;;;;;;22.30;61.75;101612.72;5026082;28;20184;-75
2022/07/08 10:11:49;;;;;;;4.13;1.77;;;;;;;22.40;61.12;101615.88;5026919;28;20211;-75
2022/07/08 10:14:16;;;;;;;2.63;1.33;;;;;;;22.43;61.11;101609.66;5020292;28;20192;-77
2022/07/08 10:16:42;;;;;;;2.93;1.37;;;;;;;22.53;61.43;101614.53;5026506;28;20612;-76
2022/07/08 10:19:28;;;;;;;2.70;1.53;;;;;;;22.62;61.13;101613.31;5032262;28;20183;-76
2022/07/08 10:21:58;;;;;;;4.13;1.50;;;;;;;22.48;61.05;101621.75;5009740;28;20181;-76
2022/07/08 10:24:30;;;;;;;2.80;1.40;;;;;;;22.17;60.68;101606.19;5022609;28;20202;-76
2022/07/08 10:26:59;;;;;;;3.50;1.80;;;;;;;22.05;61.06;101612.78;5039147;28;20232;-75
2022/07/08 10:29:32;;;;;;;1.60;1.13;;;;;;;22.08;61.02;101602.13;5030279;28;20214;-76
2022/07/08 10:31:58;;;;;;;4.00;1.40;;;;;;;22.11;61.11;101612.56;5029887;28;20217;-76
2022/07/08 10:34:32;;;;;;;3.13;1.30;;;;;;;22.07;60.77;101600.41;5012228;28;20210;-76
2022/07/08 10:37:00;;;;;;;3.70;1.87;;;;;;;22.00;60.84;101609.47;5012519;28;20195;-75
2022/07/08 10:39:30;;;;;;;4.17;1.80;;;;;;;21.94;60.44;101605.25;5027215;28;20234;-76
2022/07/08 10:42:13;;;;;;;2.70;1.23;;;;;;;21.96;60.85;101608.69;5030423;28;20211;-75
2022/07/08 10:44:45;;;;;;;4.20;1.40;;;;;;;21.85;60.88;101602.94;5040150;28;20218;-76
2022/07/08 10:47:22;;;;;;;3.10;1.40;;;;;;;21.87;60.85;101604.59;5031669;28;20205;-75
2022/07/08 10:49:49;;;;;;;3.33;1.57;;;;;;;22.02;61.13;101607.59;5030617;28;20325;-75
2022/07/08 10:52:15;;;;;;;4.97;1.70;;;;;;;21.98;61.33;101606.84;5029468;28;20212;-75
2022/07/08 10:54:42;;;;;;;2.67;1.50;;;;;;;22.01;61.37;101606.75;5031098;28;20194;-76
2022/07/08 10:57:09;;;;;;;2.83;1.50;;;;;;;21.93;61.36;101607.03;5015327;28;20202;-76
2022/07/08 10:59:38;;;;;;;5.47;1.90;;;;;;;21.64;61.45;101605.41;5017936;28;20546;-75
2022/07/08 11:02:11;;;;;;;2.90;1.70;;;;;;;21.56;61.56;101599.53;5024170;28;20214;-76
2022/07/08 11:04:40;;;;;;;4.73;1.87;;;;;;;21.76;62.11;101606.75;5030461;28;20218;-77
2022/07/08 11:07:14;;;;;;;8.90;2.57;;;;;;;21.88;61.59;101601.06;5025694;28;20210;-76
2022/07/08 11:09:41;;;;;;;6.20;1.83;;;;;;;21.87;61.81;101599.34;5029838;28;20191;-76
2022/07/08 11:12:21;;;;;;;4.33;1.80;;;;;;;22.03;61.99;101602.28;5029783;28;20218;-75
2022/07/08 11:14:48;;;;;;;5.43;1.87;;;;;;;22.02;61.55;101604.97;5008538;28;20180;-75
2022/07/08 11:17:15;;;;;;;5.03;1.97;;;;;;;21.97;61.82;101599.88;5029405;28;20286;-76
2022/07/08 11:19:47;;;;;;;3.23;1.83;;;;;;;22.01;62.06;101604.13;5024789;28;20250;-76
2022/07/08 11:22:13;;;;;;;5.37;1.97;;;;;;;22.08;61.92;101596.84;5029256;28;20179;-76
2022/07/08 11:24:40;;;;;;;6.23;1.97;;;;;;;22.11;62.43;101598.50;5029943;28;20230;-76